Algosea — CFN4229 — position and weather

sailwx.info

Track history (hours):
 
Tides and Currents Weather Stations Pressure Air Temp Water Temp Dewpoint Dewpoint Depression Visibility Wind Speed Wind Dir Waves Ship Positions

Algosea

Last reported at 2014-Jul-23 07:30 UTC. Time now 2014-Jul-23 20:06 UTC.
Position N 42°24' W 080°25'.

Length 144 m; draft 6.5 m.

Type: Ship (hazmat cat C). MMSI: 316006868.

Date/timePositionNaut miles runAvg speedWind from/ knotsBaromVisibWave heightAir tempDewpointWater temp
2014-Jul-23 07:30N 42°24' W 080°25'1111.8
2014-Jul-23 06:33N 42°28' W 080°11'10 9.8
2014-Jul-23 05:33N 42°35' W 080°01'1111.0
2014-Jul-23 04:33N 42°45' W 080°05'3 3.1
2014-Jul-23 03:33N 42°48' W 080°03'0 0.0
2014-Jul-23 02:33N 42°48' W 080°03'0 0.0
2014-Jul-23 01:27N 42°48' W 080°03'0 0.0
2014-Jul-23 00:33N 42°48' W 080°03'0 0.0
2014-Jul-22 23:33N 42°48' W 080°03'0 0.0
2014-Jul-22 22:33N 42°48' W 080°03'0 0.0
2014-Jul-22 21:30N 42°48' W 080°03'0 0.0
2014-Jul-22 20:30N 42°48' W 080°03'0 0.0
2014-Jul-22 19:30N 42°48' W 080°03'0 0.0
2014-Jul-22 18:30N 42°48' W 080°03'0 0.0
2014-Jul-22 17:24N 42°48' W 080°03'0 0.0
2014-Jul-22 16:24N 42°48' W 080°03'1 1.3
2014-Jul-22 15:33N 42°47' W 080°03'6 6.3
2014-Jul-22 14:33N 42°44' W 080°11'0 0.1
2014-Jul-22 13:34N 42°44' W 080°11'0 0.0
2014-Jul-22 12:34N 42°44' W 080°11'0 0.0
2014-Jul-22 11:34N 42°44' W 080°11'0 0.1
2014-Jul-22 10:34N 42°44' W 080°11'0 0.0
2014-Jul-22 09:31N 42°44' W 080°11'0 0.0
2014-Jul-22 08:25N 42°44' W 080°11'0 0.0
2014-Jul-22 07:07N 42°44' W 080°11'0 0.0
2014-Jul-22 06:31N 42°44' W 080°11'0 0.0
2014-Jul-22 05:31N 42°44' W 080°11'0 0.0
2014-Jul-22 04:19N 42°44' W 080°11'0 0.1
2014-Jul-22 03:31N 42°44' W 080°11'0 0.0
2014-Jul-22 02:25N 42°44' W 080°11'0 0.0
2014-Jul-22 01:31N 42°44' W 080°11'0 0.0
2014-Jul-22 00:31N 42°44' W 080°11'0 0.0
2014-Jul-21 23:31N 42°44' W 080°11'0 0.0
2014-Jul-21 22:31N 42°44' W 080°11'0 0.0
2014-Jul-21 21:25N 42°44' W 080°11'0 0.0
2014-Jul-21 20:31N 42°44' W 080°11'0 0.1
2014-Jul-21 20:18N 42°44' W 080°11'6 8.5
2014-Jul-21 19:33N 42°42' W 080°03'1312.7
2014-Jul-21 18:33N 42°45' W 079°46'1412.6
2014-Jul-21 17:29N 42°47' W 079°28'29 2.4
2014-Jul-21 05:33N 43°14' W 079°13'5 4.6
2014-Jul-21 04:23N 43°19' W 079°11'1011.7
2014-Jul-21 03:33N 43°25' W 078°60'10412.9
2014-Jul-20 19:27N 43°55' W 076°42'1112.5
2014-Jul-20 18:34N 44°01' W 076°29'1110.8
2014-Jul-20 17:33N 44°10' W 076°20'1110.6
2014-Jul-20 16:30N 44°15' W 076°06'68 9.6
2014-Jul-20 09:25N 44°58' W 074°53'10 3.4
2014-Jul-20 06:34N 45°01' W 074°40'8 8.2
2014-Jul-20 05:34N 45°05' W 074°30'1010.2
2014-Jul-20 04:34N 45°12' W 074°19'10 9.9
2014-Jul-20 03:34N 45°13' W 074°05'8 8.1
2014-Jul-20 02:34N 45°18' W 073°56'1 0.9
2014-Jul-20 01:34N 45°19' W 073°55'2 2.4
2014-Jul-20 00:34N 45°21' W 073°53'9 8.7
2014-Jul-19 23:34N 45°25' W 073°42'6 5.6
2014-Jul-19 22:34N 45°24' W 073°34'4 4.2
2014-Jul-19 21:33N 45°28' W 073°30'3 2.6
2014-Jul-19 20:34N 45°30' W 073°31'5 4.9
2014-Jul-19 19:33N 45°35' W 073°30'0 0.0
2014-Jul-19 18:34N 45°35' W 073°30'0 0.0
2014-Jul-19 17:34N 45°35' W 073°30'0 0.0
2014-Jul-19 16:33N 45°35' W 073°30'0 0.0
2014-Jul-19 15:33N 45°35' W 073°30'0 0.0
2014-Jul-19 14:33N 45°35' W 073°30'0 0.0
2014-Jul-19 13:33N 45°35' W 073°30'0 0.0
2014-Jul-19 12:33N 45°35' W 073°30'0 0.0
2014-Jul-19 11:33N 45°35' W 073°30'0 0.0
2014-Jul-19 10:33N 45°35' W 073°30'0 0.0
2014-Jul-19 09:33N 45°35' W 073°30'0 0.0
2014-Jul-19 08:33N 45°35' W 073°30'0 0.0
2014-Jul-19 07:33N 45°35' W 073°30'0 0.0
2014-Jul-19 06:33N 45°35' W 073°30'5 4.8
2014-Jul-19 05:34N 45°30' W 073°31'2 1.8
2014-Jul-19 04:34N 45°29' W 073°31'5 4.7
2014-Jul-19 03:33N 45°24' W 073°34'3 3.2
2014-Jul-19 02:33N 45°24' W 073°38'10 9.5
2014-Jul-19 01:33N 45°21' W 073°51'4 4.1
2014-Jul-19 00:34N 45°18' W 073°56'2 2.4
2014-Jul-18 23:33N 45°16' W 073°57'1110.7
2014-Jul-18 22:33N 45°14' W 074°12'1312.7
2014-Jul-18 21:33N 45°07' W 074°27'65 8.2
2014-Jul-18 13:33N 44°32' W 075°45'2210.9
2014-Jul-18 11:32N 44°15' W 076°04'1211.9
2014-Jul-18 10:33N 44°10' W 076°19'1211.5
2014-Jul-18 09:33N 44°00' W 076°27'163 7.1
2014-Jul-17 10:31N 42°45' W 079°46'1212.6
2014-Jul-17 09:33N 42°42' W 080°02'5 5.4
2014-Jul-17 08:33N 42°48' W 080°03'0 0.0
2014-Jul-17 04:16N 42°48' W 080°03'  
2014-Jul-14 17:33N 42°48' W 080°03'3 2.9
2014-Jul-14 16:33N 42°45' W 080°05'5 4.6
2014-Jul-14 15:29N 42°44' W 080°11'0 0.0
2014-Jul-14 14:33N 42°44' W 080°11'0 0.0
2014-Jul-14 13:29N 42°44' W 080°11'0 0.0
2014-Jul-14 12:29N 42°44' W 080°11'0 0.0
2014-Jul-14 11:29N 42°44' W 080°11'0 0.0
2014-Jul-14 10:29N 42°44' W 080°11'0 0.0
2014-Jul-14 09:29N 42°44' W 080°11'0 0.0
2014-Jul-14 08:29N 42°44' W 080°11'0 0.1
2014-Jul-14 07:29N 42°44' W 080°11'0 0.1
2014-Jul-14 06:29N 42°44' W 080°11'0 0.0
2014-Jul-14 05:29N 42°44' W 080°11'0 0.0
2014-Jul-14 04:29N 42°44' W 080°11'0 0.0
2014-Jul-14 03:29N 42°44' W 080°11'0 0.0
2014-Jul-14 02:29N 42°44' W 080°11'0 0.0
2014-Jul-14 01:29N 42°44' W 080°11'0 0.0
2014-Jul-14 00:29N 42°44' W 080°11'0 0.0
2014-Jul-13 23:32N 42°44' W 080°11'0 0.0
2014-Jul-13 22:26N 42°44' W 080°11'0 0.0
2014-Jul-13 21:32N 42°44' W 080°11'0 0.0
2014-Jul-13 20:32N 42°44' W 080°11'0 0.0
2014-Jul-13 19:29N 42°44' W 080°11'0 0.0
2014-Jul-13 18:29N 42°44' W 080°11'0 0.0
2014-Jul-13 17:29N 42°44' W 080°11'0 0.0
2014-Jul-13 16:29N 42°44' W 080°11'0 0.0
2014-Jul-13 15:29N 42°44' W 080°11'0 0.0
2014-Jul-13 14:17N 42°44' W 080°11'0 0.0
2014-Jul-13 13:29N 42°44' W 080°11'0 0.1
2014-Jul-13 12:33N 42°44' W 080°11'8 7.8
2014-Jul-13 11:33N 42°39' W 080°03'1211.5
2014-Jul-13 10:33N 42°27' W 080°04'  
Track history (hours):
 
Tides and Currents Weather Stations Pressure Air Temp Water Temp Dewpoint Dewpoint Depression Visibility Wind Speed Wind Dir Waves Ship Positions

Algosea

Last reported at 2014-Jul-23 07:30 UTC. Time now 2014-Jul-23 20:06 UTC.
Position N 42°24' W 080°25'.

Length 144 m; draft 6.5 m.

Type: Ship (hazmat cat C). MMSI: 316006868.

Date/timePositionNaut miles runAvg speedWind from/ knotsBaromVisibWave heightAir tempDewpointWater temp
2014-Jul-23 07:30N 42°24' W 080°25'1111.8
2014-Jul-23 06:33N 42°28' W 080°11'10 9.8
2014-Jul-23 05:33N 42°35' W 080°01'1111.0
2014-Jul-23 04:33N 42°45' W 080°05'3 3.1
2014-Jul-23 03:33N 42°48' W 080°03'0 0.0
2014-Jul-23 02:33N 42°48' W 080°03'0 0.0
2014-Jul-23 01:27N 42°48' W 080°03'0 0.0
2014-Jul-23 00:33N 42°48' W 080°03'0 0.0
2014-Jul-22 23:33N 42°48' W 080°03'0 0.0
2014-Jul-22 22:33N 42°48' W 080°03'0 0.0
2014-Jul-22 21:30N 42°48' W 080°03'0 0.0
2014-Jul-22 20:30N 42°48' W 080°03'0 0.0
2014-Jul-22 19:30N 42°48' W 080°03'0 0.0
2014-Jul-22 18:30N 42°48' W 080°03'0 0.0
2014-Jul-22 17:24N 42°48' W 080°03'0 0.0
2014-Jul-22 16:24N 42°48' W 080°03'1 1.3
2014-Jul-22 15:33N 42°47' W 080°03'6 6.3
2014-Jul-22 14:33N 42°44' W 080°11'0 0.1
2014-Jul-22 13:34N 42°44' W 080°11'0 0.0
2014-Jul-22 12:34N 42°44' W 080°11'0 0.0
2014-Jul-22 11:34N 42°44' W 080°11'0 0.1
2014-Jul-22 10:34N 42°44' W 080°11'0 0.0
2014-Jul-22 09:31N 42°44' W 080°11'0 0.0
2014-Jul-22 08:25N 42°44' W 080°11'0 0.0
2014-Jul-22 07:07N 42°44' W 080°11'0 0.0
2014-Jul-22 06:31N 42°44' W 080°11'0 0.0
2014-Jul-22 05:31N 42°44' W 080°11'0 0.0
2014-Jul-22 04:19N 42°44' W 080°11'0 0.1
2014-Jul-22 03:31N 42°44' W 080°11'0 0.0
2014-Jul-22 02:25N 42°44' W 080°11'0 0.0
2014-Jul-22 01:31N 42°44' W 080°11'0 0.0
2014-Jul-22 00:31N 42°44' W 080°11'0 0.0
2014-Jul-21 23:31N 42°44' W 080°11'0 0.0
2014-Jul-21 22:31N 42°44' W 080°11'0 0.0
2014-Jul-21 21:25N 42°44' W 080°11'0 0.0
2014-Jul-21 20:31N 42°44' W 080°11'0 0.1
2014-Jul-21 20:18N 42°44' W 080°11'6 8.5
2014-Jul-21 19:33N 42°42' W 080°03'1312.7
2014-Jul-21 18:33N 42°45' W 079°46'1412.6
2014-Jul-21 17:29N 42°47' W 079°28'29 2.4
2014-Jul-21 05:33N 43°14' W 079°13'5 4.6
2014-Jul-21 04:23N 43°19' W 079°11'1011.7
2014-Jul-21 03:33N 43°25' W 078°60'10412.9
2014-Jul-20 19:27N 43°55' W 076°42'1112.5
2014-Jul-20 18:34N 44°01' W 076°29'1110.8
2014-Jul-20 17:33N 44°10' W 076°20'1110.6
2014-Jul-20 16:30N 44°15' W 076°06'68 9.6
2014-Jul-20 09:25N 44°58' W 074°53'10 3.4
2014-Jul-20 06:34N 45°01' W 074°40'8 8.2
2014-Jul-20 05:34N 45°05' W 074°30'1010.2
2014-Jul-20 04:34N 45°12' W 074°19'10 9.9
2014-Jul-20 03:34N 45°13' W 074°05'8 8.1
2014-Jul-20 02:34N 45°18' W 073°56'1 0.9
2014-Jul-20 01:34N 45°19' W 073°55'2 2.4
2014-Jul-20 00:34N 45°21' W 073°53'9 8.7
2014-Jul-19 23:34N 45°25' W 073°42'6 5.6
2014-Jul-19 22:34N 45°24' W 073°34'4 4.2
2014-Jul-19 21:33N 45°28' W 073°30'3 2.6
2014-Jul-19 20:34N 45°30' W 073°31'5 4.9
2014-Jul-19 19:33N 45°35' W 073°30'0 0.0
2014-Jul-19 18:34N 45°35' W 073°30'0 0.0
2014-Jul-19 17:34N 45°35' W 073°30'0 0.0
2014-Jul-19 16:33N 45°35' W 073°30'0 0.0
2014-Jul-19 15:33N 45°35' W 073°30'0 0.0
2014-Jul-19 14:33N 45°35' W 073°30'0 0.0
2014-Jul-19 13:33N 45°35' W 073°30'0 0.0
2014-Jul-19 12:33N 45°35' W 073°30'0 0.0
2014-Jul-19 11:33N 45°35' W 073°30'0 0.0
2014-Jul-19 10:33N 45°35' W 073°30'0 0.0
2014-Jul-19 09:33N 45°35' W 073°30'0 0.0
2014-Jul-19 08:33N 45°35' W 073°30'0 0.0
2014-Jul-19 07:33N 45°35' W 073°30'0 0.0
2014-Jul-19 06:33N 45°35' W 073°30'5 4.8
2014-Jul-19 05:34N 45°30' W 073°31'2 1.8
2014-Jul-19 04:34N 45°29' W 073°31'5 4.7
2014-Jul-19 03:33N 45°24' W 073°34'3 3.2
2014-Jul-19 02:33N 45°24' W 073°38'10 9.5
2014-Jul-19 01:33N 45°21' W 073°51'4 4.1
2014-Jul-19 00:34N 45°18' W 073°56'2 2.4
2014-Jul-18 23:33N 45°16' W 073°57'1110.7
2014-Jul-18 22:33N 45°14' W 074°12'1312.7
2014-Jul-18 21:33N 45°07' W 074°27'65 8.2
2014-Jul-18 13:33N 44°32' W 075°45'2210.9
2014-Jul-18 11:32N 44°15' W 076°04'1211.9
2014-Jul-18 10:33N 44°10' W 076°19'1211.5
2014-Jul-18 09:33N 44°00' W 076°27'163 7.1
2014-Jul-17 10:31N 42°45' W 079°46'1212.6
2014-Jul-17 09:33N 42°42' W 080°02'5 5.4
2014-Jul-17 08:33N 42°48' W 080°03'0 0.0
2014-Jul-17 04:16N 42°48' W 080°03'  
2014-Jul-14 17:33N 42°48' W 080°03'3 2.9
2014-Jul-14 16:33N 42°45' W 080°05'5 4.6
2014-Jul-14 15:29N 42°44' W 080°11'0 0.0
2014-Jul-14 14:33N 42°44' W 080°11'0 0.0
2014-Jul-14 13:29N 42°44' W 080°11'0 0.0
2014-Jul-14 12:29N 42°44' W 080°11'0 0.0
2014-Jul-14 11:29N 42°44' W 080°11'0 0.0
2014-Jul-14 10:29N 42°44' W 080°11'0 0.0
2014-Jul-14 09:29N 42°44' W 080°11'0 0.0
2014-Jul-14 08:29N 42°44' W 080°11'0 0.1
2014-Jul-14 07:29N 42°44' W 080°11'0 0.1
2014-Jul-14 06:29N 42°44' W 080°11'0 0.0
2014-Jul-14 05:29N 42°44' W 080°11'0 0.0
2014-Jul-14 04:29N 42°44' W 080°11'0 0.0
2014-Jul-14 03:29N 42°44' W 080°11'0 0.0
2014-Jul-14 02:29N 42°44' W 080°11'0 0.0
2014-Jul-14 01:29N 42°44' W 080°11'0 0.0
2014-Jul-14 00:29N 42°44' W 080°11'0 0.0
2014-Jul-13 23:32N 42°44' W 080°11'0 0.0
2014-Jul-13 22:26N 42°44' W 080°11'0 0.0
2014-Jul-13 21:32N 42°44' W 080°11'0 0.0
2014-Jul-13 20:32N 42°44' W 080°11'0 0.0
2014-Jul-13 19:29N 42°44' W 080°11'0 0.0
2014-Jul-13 18:29N 42°44' W 080°11'0 0.0
2014-Jul-13 17:29N 42°44' W 080°11'0 0.0
2014-Jul-13 16:29N 42°44' W 080°11'0 0.0
2014-Jul-13 15:29N 42°44' W 080°11'0 0.0
2014-Jul-13 14:17N 42°44' W 080°11'0 0.0
2014-Jul-13 13:29N 42°44' W 080°11'0 0.1
2014-Jul-13 12:33N 42°44' W 080°11'8 7.8
2014-Jul-13 11:33N 42°39' W 080°03'1211.5
2014-Jul-13 10:33N 42°27' W 080°04'  

Dump ship's entire track history